»·PEaware :: CLX18 KLAS-KSLC

CLX18 :: KLAS-KSLC

FLIGHT INFORMATION

Flight Status: Arrived
Operator:
Cargolux Airlines International
More flights by this operator :: More flights under this callsign
Pilot: Imran K. (18802)
Aircraft: BOEING 747-400 (WINGLETS)
(B744)
More flights by this aircraft type
Origin: KLAS McCarran Intl
United States
Destination: KSLC Salt Lake City Intl
United States
More flights between these airports :: More routes between these airports
Route: +TRALR7 MLF DELTA5
File this flight plan on PilotEdge
Remarks: NEW TO PE
Altitude:
(Current/Filed)
29,000ft
Speed:
(Current/Filed)
315kts
Departed: 19-Apr-18 12:07 PM
Arrived: 19-Apr-18 01:15 PM
Distance/Time
Traveled:
320nm/1:07
Distance/Time
To Go:
Arrived

Flight Plot

Page will automatically refresh every two minutes.

Flight plan parsing failed; only flown route is shown


Map Options




Map Legend


Flown Route
Filed Route
Departure Airport
Arrival Airport
Navaid (VOR, NDB)
Fix

Horizontal Profiles

Position Reports

Time Latitude Longitude Heading Altitude Ground
Speed
19-Apr-18 11:22 36.082649 -115.129537 89 2127ft 0kts
19-Apr-18 11:23 36.082649 -115.129537 89 2127ft 0kts
19-Apr-18 11:24 36.082649 -115.129537 89 2127ft 0kts
19-Apr-18 11:25 36.082649 -115.129537 89 2127ft 0kts
19-Apr-18 11:26 36.082649 -115.129537 89 2127ft 0kts
19-Apr-18 11:27 36.082649 -115.129537 89 2127ft 0kts
19-Apr-18 11:28 36.082649 -115.129537 89 2127ft 0kts
19-Apr-18 11:29 36.082649 -115.129537 89 2127ft 0kts
19-Apr-18 11:30 36.082649 -115.129537 89 2127ft 0kts
19-Apr-18 11:31 36.082649 -115.129537 89 2127ft 0kts
19-Apr-18 11:32 36.082649 -115.129537 89 2127ft 0kts
19-Apr-18 11:33 36.082649 -115.129537 89 2127ft 0kts
19-Apr-18 11:34 36.082649 -115.129537 89 2127ft 0kts
19-Apr-18 11:35 36.082649 -115.129537 89 2127ft 0kts
19-Apr-18 11:36 36.082649 -115.129537 89 2127ft 0kts
19-Apr-18 11:37 36.082649 -115.129537 89 2127ft 0kts
19-Apr-18 11:38 36.082649 -115.129537 89 2127ft 0kts
19-Apr-18 11:39 36.082649 -115.129537 89 2127ft 0kts
19-Apr-18 11:40 36.082649 -115.129537 89 2127ft 0kts
19-Apr-18 11:41 36.082649 -115.129537 89 2127ft 0kts
19-Apr-18 11:42 36.082649 -115.129537 89 2127ft 0kts
19-Apr-18 11:43 36.082649 -115.129537 89 2127ft 0kts
19-Apr-18 11:44 36.082649 -115.129537 89 2127ft 0kts
19-Apr-18 11:45 36.082649 -115.129537 89 2127ft 0kts
19-Apr-18 11:46 36.082649 -115.129537 89 2127ft 0kts
19-Apr-18 11:47 36.082649 -115.129537 89 2127ft 0kts
19-Apr-18 11:48 36.082649 -115.129537 89 2127ft 0kts
19-Apr-18 11:49 36.082649 -115.129537 89 2127ft 0kts
19-Apr-18 11:50 36.082649 -115.129537 89 2127ft 0kts
19-Apr-18 11:51 36.082649 -115.129537 89 2127ft 0kts
19-Apr-18 11:52 36.082649 -115.129537 89 2127ft 0kts
19-Apr-18 11:53 36.082649 -115.129537 89 2127ft 0kts
19-Apr-18 11:54 36.082649 -115.129537 89 2127ft 0kts
19-Apr-18 11:55 36.082649 -115.129537 89 2127ft 0kts
19-Apr-18 11:56 36.082686 -115.130104 106 2127ft 2kts
19-Apr-18 11:57 36.083182 -115.130835 152 2127ft 0kts
19-Apr-18 11:58 36.083182 -115.130835 152 2127ft 0kts
19-Apr-18 11:59 36.083182 -115.130835 152 2127ft 0kts
19-Apr-18 12:00 36.083182 -115.130835 152 2127ft 0kts
19-Apr-18 12:01 36.080567 -115.130682 179 2127ft 29kts
19-Apr-18 12:02 36.077525 -115.124809 90 2127ft 39kts
19-Apr-18 12:03 36.077051 -115.121317 176 2127ft 0kts
19-Apr-18 12:04 36.077051 -115.121317 176 2127ft 0kts
19-Apr-18 12:05 36.077047 -115.121316 176 2127ft 0kts
19-Apr-18 12:06 36.076328 -115.134545 269 2128ft 132kts
19-Apr-18 12:07 36.074431 -115.203342 265 3644ft 218kts
19-Apr-18 12:08 36.070553 -115.272833 256 5500ft 182kts
19-Apr-18 12:09 36.026710 -115.310824 181 6798ft 229kts
19-Apr-18 12:10 35.959733 -115.286974 163 8554ft 276kts
19-Apr-18 12:11 35.882874 -115.244247 135 10299ft 339kts
19-Apr-18 12:12 35.858525 -115.128583 90 12020ft 362kts
19-Apr-18 12:13 35.881116 -115.010731 60 13714ft 359kts
19-Apr-18 12:14 35.925186 -114.900175 59 15404ft 360kts
19-Apr-18 12:15 35.969144 -114.789729 59 17097ft 359kts
19-Apr-18 12:16 36.013784 -114.675034 59 18808ft 382kts
19-Apr-18 12:17 36.061137 -114.552657 59 20510ft 404kts
19-Apr-18 12:18 36.110107 -114.425194 59 22213ft 416kts
19-Apr-18 12:19 36.159644 -114.294504 59 23913ft 423kts
19-Apr-18 12:20 36.208822 -114.162531 59 25607ft 421kts
19-Apr-18 12:21 36.257285 -114.030982 57 27309ft 411kts
19-Apr-18 12:22 36.306116 -113.905797 57 28995ft 395kts
19-Apr-18 12:23 36.355305 -113.780209 57 29152ft 419kts
19-Apr-18 12:24 36.408687 -113.646940 56 29152ft 447kts
19-Apr-18 12:25 36.467119 -113.504135 56 29143ft 477kts
19-Apr-18 12:26 36.528317 -113.356633 56 29132ft 481kts
19-Apr-18 12:27 36.589962 -113.208842 54 29128ft 479kts
19-Apr-18 12:28 36.696054 -113.135493 353 29131ft 444kts
19-Apr-18 12:29 36.814437 -113.172173 343 29134ft 438kts
19-Apr-18 12:30 36.931561 -113.213725 343 29134ft 438kts
19-Apr-18 12:31 37.048776 -113.254739 343 29134ft 438kts
19-Apr-18 12:32 37.166456 -113.295752 343 29130ft 438kts
19-Apr-18 12:33 37.284171 -113.336651 344 29127ft 438kts
19-Apr-18 12:34 37.404496 -113.313834 13 29121ft 450kts
19-Apr-18 12:35 37.524300 -113.266984 13 29107ft 451kts
19-Apr-18 12:36 37.644077 -113.219980 13 29102ft 452kts
19-Apr-18 12:37 37.764446 -113.172627 13 29096ft 452kts
19-Apr-18 12:38 37.884414 -113.125324 13 29097ft 452kts
19-Apr-18 12:39 38.007369 -113.099314 358 29101ft 447kts
19-Apr-18 12:40 38.130661 -113.085033 12 29100ft 451kts
19-Apr-18 12:41 38.252542 -113.038976 10 29119ft 457kts
19-Apr-18 12:42 38.375076 -112.998215 10 29125ft 456kts
19-Apr-18 12:43 38.497898 -112.957211 10 29121ft 456kts
19-Apr-18 12:44 38.613764 -112.891201 28 29136ft 468kts
19-Apr-18 12:45 38.727637 -112.809912 20 29130ft 465kts
19-Apr-18 12:46 38.844431 -112.739644 20 29131ft 464kts
19-Apr-18 12:47 38.961460 -112.669284 18 29132ft 465kts
19-Apr-18 12:48 39.081997 -112.611204 15 29150ft 464kts
19-Apr-18 12:49 39.203314 -112.554186 15 29143ft 464kts
19-Apr-18 12:50 39.325443 -112.498546 9 29154ft 463kts
19-Apr-18 12:51 39.450240 -112.456569 10 29153ft 462kts
19-Apr-18 12:52 39.574368 -112.413636 10 29158ft 462kts
19-Apr-18 12:53 39.698566 -112.370484 10 29163ft 463kts
19-Apr-18 12:54 39.819983 -112.327834 10 27861ft 438kts
19-Apr-18 12:55 39.934578 -112.287249 10 26355ft 419kts
19-Apr-18 12:56 40.046669 -112.247438 10 24421ft 412kts
19-Apr-18 12:57 40.156193 -112.208974 10 22420ft 403kts
19-Apr-18 12:58 40.263507 -112.171851 10 20420ft 395kts
19-Apr-18 12:59 40.370356 -112.149649 1 18415ft 383kts
19-Apr-18 13:00 40.475534 -112.137272 1 16417ft 377kts
19-Apr-18 13:01 40.579195 -112.126280 1 14431ft 370kts
19-Apr-18 13:02 40.676132 -112.116275 1 14184ft 323kts
19-Apr-18 13:03 40.755760 -112.107134 357 14178ft 268kts
19-Apr-18 13:04 40.829847 -112.114059 351 12972ft 265kts
19-Apr-18 13:05 40.902340 -112.124046 351 11463ft 252kts
19-Apr-18 13:06 40.970977 -112.134520 353 9956ft 245kts
19-Apr-18 13:07 41.037065 -112.123936 40 9072ft 255kts
19-Apr-18 13:08 41.048697 -112.035549 119 9104ft 262kts
19-Apr-18 13:09 40.987758 -111.997655 171 9108ft 235kts
19-Apr-18 13:10 40.924804 -111.989799 177 6543ft 230kts
19-Apr-18 13:11 40.876088 -111.985384 176 5082ft 186kts
19-Apr-18 13:12 40.837160 -111.980408 174 4568ft 188kts
19-Apr-18 13:13 40.792733 -111.975144 174 4240ft 81kts
19-Apr-18 13:14 40.784767 -111.975389 203 4240ft 0kts
19-Apr-18 13:15 40.784767 -111.975389 203 4240ft 0kts
19-Apr-18 13:16 40.784360 -111.975626 203 4240ft 3kts
19-Apr-18 13:17 40.784213 -111.976329 353 4240ft 3kts
19-Apr-18 13:18 40.785624 -111.976505 354 4240ft 6kts
19-Apr-18 13:19 40.788433 -111.976817 354 4240ft 22kts
19-Apr-18 13:20 40.796542 -111.977781 355 4240ft 26kts
19-Apr-18 13:21 40.800537 -111.978991 320 4240ft 6kts
19-Apr-18 13:22 40.803004 -111.979537 355 4240ft 0kts
19-Apr-18 13:23 40.802300 -111.980411 181 4240ft 22kts
19-Apr-18 13:24 40.802295 -111.983186 317 4240ft 0kts
19-Apr-18 13:25 40.802295 -111.983186 317 4240ft 0kts
19-Apr-18 13:26 40.802295 -111.983186 317 4240ft 0kts
19-Apr-18 13:27 40.802295 -111.983186 317 4240ft 0kts
19-Apr-18 13:28 40.802295 -111.983186 317 4240ft 0kts

Navigation Log

Ident Type
Flight plan parsing failed, navigation log unavailable